AirNav   Air Wisconsin pilot careers
 
 1298 users online  

12MO Ferguson Farms Airport
Windsor, Missouri, USA

GOING TO WINDSOR?


FAA INFORMATION EFFECTIVE 06 DECEMBER 2018

Location

FAA Identifier: 12MO
Lat/Long: 38-34-50.0590N / 093-35-40.7620W
38-34.834317N / 093-35.679367W
38.5805719 / -93.5946561
(estimated)
Elevation: 990 ft. / 302 m (estimated)
Variation: 04E (1985)
From city: 4 miles NW of WINDSOR, MO
Time zone: UTC -6 (UTC -5 during Daylight Saving Time)
Zip code: 65360

Airport Operations

Airport use: Private use. Permission required prior to landing
Activation date: 09/1970
Control tower: no
ARTCC: KANSAS CITY CENTER
FSS: COLUMBIA FLIGHT SERVICE STATION
Attendance: UNATNDD
Wind indicator: yes
Segmented circle: no

Airport Communications

WX AWOS-3 at GLY (14 nm S): 120.475 (660-885-3851)
WX AWOS-3 at RCM (16 nm NW): 119.575 (660-422-7010)
WX AWOS-3 at RAW (18 nm SE): 118.325 (660-547-3761)

Nearby radio navigation aids

VOR radial/distance  VOR name  Freq  Var
ANXr134/39.7NAPOLEON VORTAC114.0007E

 
NDB name  Hdg/Dist  Freq  Var  ID
GOLDEN VALLEY017/14.038801EGLY --. .-.. -.--
SEDALIA246/21.028103EDMO -.. -- ---
MARSHALL211/33.437103EPUR .--. ..- .-.

Airport Services

Airframe service: NONE
Powerplant service: NONE

Runway Information

Runway NE/SW

Dimensions: 3000 x 50 ft. / 914 x 15 m
Surface: turf
RUNWAY NE  RUNWAY SW
Traffic pattern: leftleft
Obstructions: nonepline

Airport Ownership and Management from official FAA records

Ownership: Privately-owned
Owner: BOB FERGUSON
RR 1
WINDSOR, MO 65360
Phone 660-647-2787
Manager: BOB FERGUSON
RR 1
WINDSOR, MO 65360
Phone 660-647-2787

Additional Remarks

CATTLE ON FLD FROM TIME TO TIME.

Instrument Procedures

There are no published instrument procedures at 12MO.

Some nearby airports with instrument procedures:

KSZL - Whiteman Air Force Base (9 nm N)
KGLY - Clinton Regional Airport (14 nm S)
KRCM - Skyhaven Airport (16 nm NW)
KRAW - Warsaw Municipal Airport (18 nm SE)
KDMO - Sedalia Regional Airport (21 nm E)
 
Loc | Ops | Rwys | IFR | FBO | Links
Com | Nav | Svcs | Stats | Notes

Kansas City Aviation Department
 
Area around 12MO (Ferguson Farms Airport)
 
Road maps at: MapQuest Bing Google
 
Aerial photo
WARNING: Photo may not be current or correct
Aerial photo of 12MO (Ferguson Farms Airport)
Do you have a better or more recent aerial photo of Ferguson Farms Airport that you would like to share? If so, please send us your photo.

 
Sectional chart

 
Airport distance calculator
Flying to Ferguson Farms Airport? Find the distance to fly.

From to 12MO

Sunrise and sunset
Times for 14-Dec-2018
 Local
(UTC-6)
 Zulu
(UTC)
Morning civil twilight06:5512:55
Sunrise07:2513:25
Sunset16:5322:53
Evening civil twilight17:2323:23

Current date and time
Zulu (UTC)  14-Dec-2018 17:29:18
Local (UTC-6)  14-Dec-2018 11:29:18
 
METAR
KSZL 
9nm N 
141656Z 01013KT 1/4SM R01/3000V3500FT FG VV001 02/02 A3015 RMK AO2A SLP219 T00160016 $
KGLY 
14nm S 
141535Z AUTO 02012KT 1SM BR OVC003 02/02 A3018 RMK AO2
KRCM 
16nm NW 
141715Z AUTO 36007KT 1 3/4SM BR OVC001 01/00 A3021 RMK AO2
KRAW 
18nm SE 
141715Z AUTO 36012G16KT 1SM BR OVC002 A3015 RMK AO2
TAF
KSZL 
9nm N 
141515Z 1415/1517 01012KT 0800 FG OVC001 620904 QNH3003INS TEMPO 1415/1418 1200 BR OVC002 BECMG 1422/1423 36009KT 9999 NSW BKN020 QNH3011INS BECMG 1503/1504 01009KT 9999 SCT020 QNH3010INS TX05/1421Z TN00/1510Z
NOTAMs
Click for the latest NOTAMs
NOTAMs are issued by the DoD/FAA and will open in a separate window not controlled by AirNav.

 

 
 

Would you like to see your business listed on this page?

 If your business provides an interesting product or service to pilots, flight crews, aircraft, or users of the Ferguson Farms Airport, you should consider listing it here.  To start the listing process, click on the button below
 
Add a business
 

Other Pages about Ferguson Farms Airport

Update a link
 
Copyright © AirNav, LLC. All rights reserved. Privacy Policy  Contact